sensor_id;sensor_type;location;lat;lon;timestamp;P1;durP1;ratioP1;P2;durP2;ratioP2
7985;SDS011;4038;42.612;23.066;2022-07-29T00:00:08;36.25;;;32.85;;
7985;SDS011;4038;42.612;23.066;2022-07-29T00:02:34;34.05;;;31.15;;
7985;SDS011;4038;42.612;23.066;2022-07-29T00:05:00;34.33;;;31.17;;
7985;SDS011;4038;42.612;23.066;2022-07-29T00:07:26;33.80;;;30.90;;
7985;SDS011;4038;42.612;23.066;2022-07-29T00:09:51;33.30;;;30.50;;
7985;SDS011;4038;42.612;23.066;2022-07-29T00:12:17;32.92;;;30.33;;
7985;SDS011;4038;42.612;23.066;2022-07-29T00:14:43;33.05;;;30.50;;
7985;SDS011;4038;42.612;23.066;2022-07-29T00:17:08;33.95;;;31.25;;
7985;SDS011;4038;42.612;23.066;2022-07-29T00:19:34;36.45;;;33.00;;
7985;SDS011;4038;42.612;23.066;2022-07-29T00:22:00;35.47;;;32.25;;
7985;SDS011;4038;42.612;23.066;2022-07-29T00:24:26;34.63;;;31.63;;
7985;SDS011;4038;42.612;23.066;2022-07-29T00:26:51;35.38;;;32.38;;
7985;SDS011;4038;42.612;23.066;2022-07-29T00:29:17;34.60;;;31.80;;
7985;SDS011;4038;42.612;23.066;2022-07-29T00:31:42;35.25;;;32.20;;
7985;SDS011;4038;42.612;23.066;2022-07-29T00:34:08;35.72;;;32.80;;
7985;SDS011;4038;42.612;23.066;2022-07-29T00:36:54;35.88;;;33.00;;
7985;SDS011;4038;42.612;23.066;2022-07-29T00:39:20;34.78;;;32.05;;
7985;SDS011;4038;42.612;23.066;2022-07-29T00:41:46;35.22;;;32.33;;
7985;SDS011;4038;42.612;23.066;2022-07-29T00:44:11;35.40;;;32.40;;
7985;SDS011;4038;42.612;23.066;2022-07-29T00:46:36;34.85;;;32.05;;
7985;SDS011;4038;42.612;23.066;2022-07-29T00:49:02;33.25;;;30.50;;
7985;SDS011;4038;42.612;23.066;2022-07-29T00:51:27;35.50;;;32.50;;
7985;SDS011;4038;42.612;23.066;2022-07-29T00:53:54;35.85;;;32.58;;
7985;SDS011;4038;42.612;23.066;2022-07-29T00:56:19;35.95;;;33.00;;
7985;SDS011;4038;42.612;23.066;2022-07-29T00:58:45;36.58;;;33.72;;
7985;SDS011;4038;42.612;23.066;2022-07-29T01:01:13;36.30;;;33.17;;
7985;SDS011;4038;42.612;23.066;2022-07-29T01:03:38;35.42;;;32.42;;
7985;SDS011;4038;42.612;23.066;2022-07-29T01:06:03;34.72;;;31.77;;
7985;SDS011;4038;42.612;23.066;2022-07-29T01:08:30;34.60;;;31.52;;
7985;SDS011;4038;42.612;23.066;2022-07-29T01:10:57;36.90;;;33.67;;
7985;SDS011;4038;42.612;23.066;2022-07-29T01:13:22;35.80;;;32.50;;
7985;SDS011;4038;42.612;23.066;2022-07-29T01:15:51;36.75;;;33.17;;
7985;SDS011;4038;42.612;23.066;2022-07-29T01:18:28;39.03;;;35.45;;
7985;SDS011;4038;42.612;23.066;2022-07-29T01:26:41;36.25;;;32.45;;
7985;SDS011;4038;42.612;23.066;2022-07-29T01:29:30;34.92;;;31.65;;
7985;SDS011;4038;42.612;23.066;2022-07-29T01:32:02;40.38;;;36.15;;
7985;SDS011;4038;42.612;23.066;2022-07-29T01:34:35;66.63;;;39.85;;
7985;SDS011;4038;42.612;23.066;2022-07-29T01:39:51;47.47;;;36.33;;
7985;SDS011;4038;42.612;23.066;2022-07-29T01:44:53;44.13;;;34.78;;
7985;SDS011;4038;42.612;23.066;2022-07-29T01:47:25;39.22;;;35.50;;
7985;SDS011;4038;42.612;23.066;2022-07-29T01:49:58;39.75;;;34.55;;
7985;SDS011;4038;42.612;23.066;2022-07-29T01:52:38;37.92;;;34.22;;
7985;SDS011;4038;42.612;23.066;2022-07-29T01:55:15;46.35;;;37.22;;
7985;SDS011;4038;42.612;23.066;2022-07-29T01:57:44;39.00;;;35.05;;
7985;SDS011;4038;42.612;23.066;2022-07-29T02:00:12;38.50;;;34.80;;
7985;SDS011;4038;42.612;23.066;2022-07-29T02:02:39;38.85;;;34.90;;
7985;SDS011;4038;42.612;23.066;2022-07-29T02:05:07;50.67;;;35.08;;
7985;SDS011;4038;42.612;23.066;2022-07-29T02:07:37;37.42;;;33.85;;
7985;SDS011;4038;42.612;23.066;2022-07-29T02:10:05;38.38;;;34.95;;
7985;SDS011;4038;42.612;23.066;2022-07-29T02:12:33;38.92;;;35.08;;
7985;SDS011;4038;42.612;23.066;2022-07-29T02:15:01;37.55;;;34.00;;
7985;SDS011;4038;42.612;23.066;2022-07-29T02:17:31;38.47;;;34.83;;
7985;SDS011;4038;42.612;23.066;2022-07-29T02:20:02;40.72;;;36.70;;
7985;SDS011;4038;42.612;23.066;2022-07-29T02:22:30;38.15;;;34.60;;
7985;SDS011;4038;42.612;23.066;2022-07-29T02:24:58;38.40;;;34.40;;
7985;SDS011;4038;42.612;23.066;2022-07-29T02:27:25;37.03;;;33.15;;
7985;SDS011;4038;42.612;23.066;2022-07-29T02:29:53;37.80;;;34.13;;
7985;SDS011;4038;42.612;23.066;2022-07-29T02:32:21;38.05;;;34.33;;
7985;SDS011;4038;42.612;23.066;2022-07-29T02:34:48;38.47;;;34.70;;
7985;SDS011;4038;42.612;23.066;2022-07-29T02:37:14;37.40;;;33.67;;
7985;SDS011;4038;42.612;23.066;2022-07-29T02:39:43;42.85;;;38.47;;
7985;SDS011;4038;42.612;23.066;2022-07-29T02:42:11;46.78;;;41.83;;
7985;SDS011;4038;42.612;23.066;2022-07-29T02:44:40;46.55;;;41.42;;
7985;SDS011;4038;42.612;23.066;2022-07-29T02:47:22;46.25;;;41.25;;
7985;SDS011;4038;42.612;23.066;2022-07-29T02:53:16;40.45;;;36.42;;
7985;SDS011;4038;42.612;23.066;2022-07-29T02:55:39;39.60;;;35.67;;
7985;SDS011;4038;42.612;23.066;2022-07-29T02:58:13;40.17;;;35.97;;
7985;SDS011;4038;42.612;23.066;2022-07-29T03:00:47;40.60;;;36.65;;
7985;SDS011;4038;42.612;23.066;2022-07-29T03:03:17;40.75;;;36.78;;
7985;SDS011;4038;42.612;23.066;2022-07-29T03:05:43;40.05;;;36.45;;
7985;SDS011;4038;42.612;23.066;2022-07-29T03:08:10;41.45;;;34.88;;
7985;SDS011;4038;42.612;23.066;2022-07-29T03:10:38;37.60;;;34.17;;
7985;SDS011;4038;42.612;23.066;2022-07-29T03:13:08;36.67;;;33.30;;
7985;SDS011;4038;42.612;23.066;2022-07-29T03:15:35;33.17;;;30.48;;
7985;SDS011;4038;42.612;23.066;2022-07-29T03:18:01;33.20;;;30.33;;
7985;SDS011;4038;42.612;23.066;2022-07-29T03:20:27;32.42;;;29.70;;
7985;SDS011;4038;42.612;23.066;2022-07-29T03:22:52;33.65;;;30.75;;
7985;SDS011;4038;42.612;23.066;2022-07-29T03:25:18;34.42;;;31.45;;
7985;SDS011;4038;42.612;23.066;2022-07-29T03:27:45;35.67;;;32.63;;
7985;SDS011;4038;42.612;23.066;2022-07-29T03:30:12;36.90;;;33.65;;
7985;SDS011;4038;42.612;23.066;2022-07-29T03:32:38;35.25;;;31.85;;
7985;SDS011;4038;42.612;23.066;2022-07-29T03:35:04;36.28;;;32.95;;
7985;SDS011;4038;42.612;23.066;2022-07-29T03:37:30;37.55;;;34.05;;
7985;SDS011;4038;42.612;23.066;2022-07-29T03:39:56;37.95;;;34.40;;
7985;SDS011;4038;42.612;23.066;2022-07-29T03:42:24;37.75;;;33.97;;
7985;SDS011;4038;42.612;23.066;2022-07-29T03:44:52;37.97;;;33.95;;
7985;SDS011;4038;42.612;23.066;2022-07-29T03:47:20;37.35;;;33.60;;
7985;SDS011;4038;42.612;23.066;2022-07-29T03:49:51;36.95;;;33.55;;
7985;SDS011;4038;42.612;23.066;2022-07-29T03:52:19;37.45;;;34.00;;
7985;SDS011;4038;42.612;23.066;2022-07-29T03:54:46;35.47;;;31.98;;
7985;SDS011;4038;42.612;23.066;2022-07-29T03:57:12;35.67;;;32.38;;
7985;SDS011;4038;42.612;23.066;2022-07-29T03:59:40;35.92;;;32.33;;
7985;SDS011;4038;42.612;23.066;2022-07-29T04:02:07;44.45;;;33.45;;
7985;SDS011;4038;42.612;23.066;2022-07-29T04:04:34;36.55;;;33.17;;
7985;SDS011;4038;42.612;23.066;2022-07-29T04:07:01;35.97;;;32.58;;
7985;SDS011;4038;42.612;23.066;2022-07-29T04:09:27;37.90;;;33.90;;
7985;SDS011;4038;42.612;23.066;2022-07-29T04:11:52;37.60;;;33.88;;
7985;SDS011;4038;42.612;23.066;2022-07-29T04:14:18;36.08;;;32.38;;
7985;SDS011;4038;42.612;23.066;2022-07-29T04:16:43;37.22;;;33.50;;
7985;SDS011;4038;42.612;23.066;2022-07-29T04:19:09;36.63;;;33.08;;
7985;SDS011;4038;42.612;23.066;2022-07-29T04:21:41;35.20;;;31.95;;
7985;SDS011;4038;42.612;23.066;2022-07-29T04:24:07;36.30;;;32.97;;
7985;SDS011;4038;42.612;23.066;2022-07-29T04:26:33;36.17;;;32.60;;
7985;SDS011;4038;42.612;23.066;2022-07-29T04:28:58;36.13;;;32.50;;
7985;SDS011;4038;42.612;23.066;2022-07-29T04:31:24;35.85;;;32.33;;
7985;SDS011;4038;42.612;23.066;2022-07-29T04:33:50;35.35;;;31.75;;
7985;SDS011;4038;42.612;23.066;2022-07-29T04:36:15;36.72;;;32.80;;
7985;SDS011;4038;42.612;23.066;2022-07-29T04:38:41;38.95;;;34.63;;
7985;SDS011;4038;42.612;23.066;2022-07-29T04:41:06;38.33;;;34.55;;
7985;SDS011;4038;42.612;23.066;2022-07-29T04:43:33;37.63;;;33.97;;
7985;SDS011;4038;42.612;23.066;2022-07-29T04:45:59;37.33;;;33.72;;
7985;SDS011;4038;42.612;23.066;2022-07-29T04:48:25;38.42;;;33.67;;
7985;SDS011;4038;42.612;23.066;2022-07-29T04:50:51;35.67;;;32.17;;
7985;SDS011;4038;42.612;23.066;2022-07-29T04:53:16;36.08;;;32.45;;
7985;SDS011;4038;42.612;23.066;2022-07-29T04:55:42;35.97;;;32.67;;
7985;SDS011;4038;42.612;23.066;2022-07-29T04:58:07;36.80;;;31.83;;
7985;SDS011;4038;42.612;23.066;2022-07-29T05:00:33;36.42;;;32.72;;
7985;SDS011;4038;42.612;23.066;2022-07-29T05:02:59;35.00;;;31.85;;
7985;SDS011;4038;42.612;23.066;2022-07-29T05:05:24;36.33;;;32.90;;
7985;SDS011;4038;42.612;23.066;2022-07-29T05:07:49;37.33;;;33.65;;
7985;SDS011;4038;42.612;23.066;2022-07-29T05:10:15;36.97;;;33.03;;
7985;SDS011;4038;42.612;23.066;2022-07-29T05:12:40;35.60;;;32.58;;
7985;SDS011;4038;42.612;23.066;2022-07-29T05:15:06;37.85;;;34.45;;
7985;SDS011;4038;42.612;23.066;2022-07-29T05:17:32;37.08;;;33.53;;
7985;SDS011;4038;42.612;23.066;2022-07-29T05:19:57;37.13;;;33.25;;
7985;SDS011;4038;42.612;23.066;2022-07-29T05:22:22;39.35;;;35.40;;
7985;SDS011;4038;42.612;23.066;2022-07-29T05:24:48;47.58;;;35.58;;
7985;SDS011;4038;42.612;23.066;2022-07-29T05:27:13;59.00;;;37.20;;
7985;SDS011;4038;42.612;23.066;2022-07-29T05:29:39;43.45;;;34.60;;
7985;SDS011;4038;42.612;23.066;2022-07-29T05:32:04;42.95;;;35.53;;
7985;SDS011;4038;42.612;23.066;2022-07-29T05:34:30;46.58;;;36.92;;
7985;SDS011;4038;42.612;23.066;2022-07-29T05:36:56;39.10;;;34.22;;
7985;SDS011;4038;42.612;23.066;2022-07-29T05:39:22;41.45;;;36.40;;
7985;SDS011;4038;42.612;23.066;2022-07-29T05:41:47;40.00;;;35.78;;
7985;SDS011;4038;42.612;23.066;2022-07-29T05:44:13;39.35;;;35.35;;
7985;SDS011;4038;42.612;23.066;2022-07-29T05:46:38;39.40;;;35.70;;
7985;SDS011;4038;42.612;23.066;2022-07-29T05:49:04;39.47;;;35.30;;
7985;SDS011;4038;42.612;23.066;2022-07-29T05:51:31;56.50;;;36.10;;
7985;SDS011;4038;42.612;23.066;2022-07-29T05:53:57;43.78;;;36.20;;
7985;SDS011;4038;42.612;23.066;2022-07-29T05:56:22;45.70;;;36.58;;
7985;SDS011;4038;42.612;23.066;2022-07-29T05:58:48;47.78;;;35.55;;
7985;SDS011;4038;42.612;23.066;2022-07-29T06:01:13;41.78;;;37.38;;
7985;SDS011;4038;42.612;23.066;2022-07-29T06:03:39;53.38;;;37.00;;
7985;SDS011;4038;42.612;23.066;2022-07-29T06:06:06;49.00;;;37.63;;
7985;SDS011;4038;42.612;23.066;2022-07-29T06:08:32;50.15;;;37.63;;
7985;SDS011;4038;42.612;23.066;2022-07-29T06:10:58;49.72;;;37.00;;
7985;SDS011;4038;42.612;23.066;2022-07-29T06:13:24;44.75;;;36.45;;
7985;SDS011;4038;42.612;23.066;2022-07-29T06:15:50;54.50;;;36.03;;
7985;SDS011;4038;42.612;23.066;2022-07-29T06:18:15;40.33;;;34.25;;
7985;SDS011;4038;42.612;23.066;2022-07-29T06:20:41;44.20;;;34.03;;
7985;SDS011;4038;42.612;23.066;2022-07-29T06:23:06;40.85;;;33.22;;
7985;SDS011;4038;42.612;23.066;2022-07-29T06:25:32;39.78;;;35.55;;
7985;SDS011;4038;42.612;23.066;2022-07-29T06:28:00;38.15;;;33.45;;
7985;SDS011;4038;42.612;23.066;2022-07-29T06:30:26;40.42;;;34.67;;
7985;SDS011;4038;42.612;23.066;2022-07-29T06:32:51;39.20;;;33.28;;
7985;SDS011;4038;42.612;23.066;2022-07-29T06:35:17;38.80;;;34.63;;
7985;SDS011;4038;42.612;23.066;2022-07-29T06:37:42;41.45;;;33.45;;
7985;SDS011;4038;42.612;23.066;2022-07-29T06:40:08;38.80;;;33.65;;
7985;SDS011;4038;42.612;23.066;2022-07-29T06:42:52;39.83;;;34.33;;
7985;SDS011;4038;42.612;23.066;2022-07-29T06:45:17;50.70;;;44.97;;
7985;SDS011;4038;42.612;23.066;2022-07-29T06:47:43;43.13;;;38.75;;
7985;SDS011;4038;42.612;23.066;2022-07-29T06:50:08;48.72;;;35.72;;
7985;SDS011;4038;42.612;23.066;2022-07-29T06:52:37;42.95;;;34.78;;
7985;SDS011;4038;42.612;23.066;2022-07-29T06:55:03;39.50;;;33.80;;
7985;SDS011;4038;42.612;23.066;2022-07-29T06:57:29;37.53;;;33.25;;
7985;SDS011;4038;42.612;23.066;2022-07-29T06:59:58;35.47;;;31.75;;
7985;SDS011;4038;42.612;23.066;2022-07-29T07:02:23;35.35;;;32.17;;
7985;SDS011;4038;42.612;23.066;2022-07-29T07:04:49;35.75;;;31.83;;
7985;SDS011;4038;42.612;23.066;2022-07-29T07:07:15;38.05;;;32.13;;
7985;SDS011;4038;42.612;23.066;2022-07-29T07:09:40;37.10;;;33.10;;
7985;SDS011;4038;42.612;23.066;2022-07-29T07:12:05;36.00;;;32.55;;
7985;SDS011;4038;42.612;23.066;2022-07-29T07:14:31;36.42;;;33.05;;
7985;SDS011;4038;42.612;23.066;2022-07-29T07:16:57;36.85;;;33.35;;
7985;SDS011;4038;42.612;23.066;2022-07-29T07:19:22;36.28;;;33.05;;
7985;SDS011;4038;42.612;23.066;2022-07-29T07:21:48;36.25;;;33.00;;
7985;SDS011;4038;42.612;23.066;2022-07-29T07:24:13;34.30;;;31.20;;
7985;SDS011;4038;42.612;23.066;2022-07-29T07:26:39;34.55;;;31.00;;
7985;SDS011;4038;42.612;23.066;2022-07-29T07:29:05;31.88;;;29.25;;
7985;SDS011;4038;42.612;23.066;2022-07-29T07:31:30;32.17;;;29.58;;
7985;SDS011;4038;42.612;23.066;2022-07-29T07:33:56;30.60;;;27.92;;
7985;SDS011;4038;42.612;23.066;2022-07-29T07:36:24;30.10;;;27.70;;
7985;SDS011;4038;42.612;23.066;2022-07-29T07:38:49;30.52;;;28.13;;
7985;SDS011;4038;42.612;23.066;2022-07-29T07:41:15;30.23;;;27.92;;
7985;SDS011;4038;42.612;23.066;2022-07-29T07:43:43;32.92;;;29.75;;
7985;SDS011;4038;42.612;23.066;2022-07-29T07:46:08;30.98;;;28.48;;
7985;SDS011;4038;42.612;23.066;2022-07-29T07:48:34;30.80;;;28.30;;
7985;SDS011;4038;42.612;23.066;2022-07-29T07:51:00;33.78;;;31.30;;
7985;SDS011;4038;42.612;23.066;2022-07-29T07:53:25;32.08;;;29.77;;
7985;SDS011;4038;42.612;23.066;2022-07-29T07:55:51;31.77;;;28.92;;
7985;SDS011;4038;42.612;23.066;2022-07-29T07:58:16;31.58;;;28.90;;
7985;SDS011;4038;42.612;23.066;2022-07-29T08:00:42;32.65;;;29.83;;
7985;SDS011;4038;42.612;23.066;2022-07-29T08:03:07;31.80;;;29.20;;
7985;SDS011;4038;42.612;23.066;2022-07-29T08:05:33;33.35;;;30.42;;
7985;SDS011;4038;42.612;23.066;2022-07-29T08:07:59;33.95;;;31.17;;
7985;SDS011;4038;42.612;23.066;2022-07-29T08:10:24;31.90;;;29.50;;
7985;SDS011;4038;42.612;23.066;2022-07-29T08:13:19;33.78;;;31.13;;
7985;SDS011;4038;42.612;23.066;2022-07-29T08:15:46;32.90;;;30.17;;
7985;SDS011;4038;42.612;23.066;2022-07-29T08:18:12;32.33;;;29.92;;
7985;SDS011;4038;42.612;23.066;2022-07-29T08:20:38;31.55;;;29.25;;
7985;SDS011;4038;42.612;23.066;2022-07-29T08:23:05;30.67;;;28.50;;
7985;SDS011;4038;42.612;23.066;2022-07-29T08:25:32;33.70;;;30.95;;
7985;SDS011;4038;42.612;23.066;2022-07-29T08:27:58;32.50;;;29.83;;
7985;SDS011;4038;42.612;23.066;2022-07-29T08:30:23;33.42;;;30.75;;
7985;SDS011;4038;42.612;23.066;2022-07-29T08:32:49;32.65;;;30.05;;
7985;SDS011;4038;42.612;23.066;2022-07-29T08:35:18;32.70;;;29.60;;
7985;SDS011;4038;42.612;23.066;2022-07-29T08:37:47;33.13;;;30.42;;
7985;SDS011;4038;42.612;23.066;2022-07-29T08:40:12;34.50;;;31.95;;
7985;SDS011;4038;42.612;23.066;2022-07-29T08:42:39;32.60;;;30.08;;
7985;SDS011;4038;42.612;23.066;2022-07-29T08:45:05;33.20;;;30.50;;
7985;SDS011;4038;42.612;23.066;2022-07-29T08:47:31;32.60;;;30.30;;
7985;SDS011;4038;42.612;23.066;2022-07-29T08:49:58;32.13;;;29.83;;
7985;SDS011;4038;42.612;23.066;2022-07-29T08:52:26;31.10;;;28.75;;
7985;SDS011;4038;42.612;23.066;2022-07-29T08:54:55;31.15;;;29.00;;
7985;SDS011;4038;42.612;23.066;2022-07-29T08:57:21;31.40;;;28.52;;
7985;SDS011;4038;42.612;23.066;2022-07-29T08:59:47;32.45;;;29.40;;
7985;SDS011;4038;42.612;23.066;2022-07-29T09:02:18;30.65;;;28.33;;
7985;SDS011;4038;42.612;23.066;2022-07-29T09:04:45;30.50;;;28.35;;
7985;SDS011;4038;42.612;23.066;2022-07-29T09:07:12;30.85;;;28.40;;
7985;SDS011;4038;42.612;23.066;2022-07-29T09:09:39;30.60;;;28.27;;
7985;SDS011;4038;42.612;23.066;2022-07-29T09:12:05;30.25;;;28.05;;
7985;SDS011;4038;42.612;23.066;2022-07-29T09:14:33;31.30;;;29.00;;
7985;SDS011;4038;42.612;23.066;2022-07-29T09:16:59;31.40;;;28.83;;
7985;SDS011;4038;42.612;23.066;2022-07-29T09:19:28;31.80;;;29.30;;
7985;SDS011;4038;42.612;23.066;2022-07-29T09:21:56;30.90;;;28.25;;
7985;SDS011;4038;42.612;23.066;2022-07-29T09:24:46;30.55;;;28.15;;
7985;SDS011;4038;42.612;23.066;2022-07-29T09:27:25;30.77;;;28.38;;
7985;SDS011;4038;42.612;23.066;2022-07-29T09:29:55;33.20;;;30.10;;
7985;SDS011;4038;42.612;23.066;2022-07-29T09:32:31;31.27;;;29.13;;
7985;SDS011;4038;42.612;23.066;2022-07-29T09:35:20;31.02;;;28.88;;
7985;SDS011;4038;42.612;23.066;2022-07-29T09:37:45;31.13;;;28.70;;
7985;SDS011;4038;42.612;23.066;2022-07-29T09:40:11;32.03;;;28.90;;
7985;SDS011;4038;42.612;23.066;2022-07-29T09:42:38;31.38;;;28.65;;
7985;SDS011;4038;42.612;23.066;2022-07-29T09:45:03;30.10;;;27.70;;
7985;SDS011;4038;42.612;23.066;2022-07-29T09:47:43;30.58;;;27.83;;
7985;SDS011;4038;42.612;23.066;2022-07-29T09:50:10;30.95;;;28.48;;
7985;SDS011;4038;42.612;23.066;2022-07-29T09:52:44;31.45;;;28.90;;
7985;SDS011;4038;42.612;23.066;2022-07-29T09:55:11;30.52;;;28.27;;
7985;SDS011;4038;42.612;23.066;2022-07-29T09:57:37;30.83;;;28.48;;
7985;SDS011;4038;42.612;23.066;2022-07-29T10:02:29;30.88;;;27.63;;
7985;SDS011;4038;42.612;23.066;2022-07-29T10:04:56;29.85;;;27.05;;
7985;SDS011;4038;42.612;23.066;2022-07-29T10:07:22;29.75;;;27.13;;
7985;SDS011;4038;42.612;23.066;2022-07-29T10:09:55;29.80;;;27.10;;
7985;SDS011;4038;42.612;23.066;2022-07-29T10:12:22;33.05;;;29.70;;
7985;SDS011;4038;42.612;23.066;2022-07-29T10:14:49;32.88;;;29.77;;
7985;SDS011;4038;42.612;23.066;2022-07-29T10:17:15;31.63;;;28.83;;
7985;SDS011;4038;42.612;23.066;2022-07-29T10:19:42;33.90;;;29.73;;
7985;SDS011;4038;42.612;23.066;2022-07-29T10:22:08;31.90;;;28.65;;
7985;SDS011;4038;42.612;23.066;2022-07-29T10:24:35;34.17;;;30.60;;
7985;SDS011;4038;42.612;23.066;2022-07-29T10:27:03;33.80;;;30.25;;
7985;SDS011;4038;42.612;23.066;2022-07-29T10:29:31;32.58;;;29.60;;
7985;SDS011;4038;42.612;23.066;2022-07-29T10:37:08;33.38;;;29.90;;
7985;SDS011;4038;42.612;23.066;2022-07-29T10:42:21;34.10;;;31.20;;
7985;SDS011;4038;42.612;23.066;2022-07-29T10:44:50;31.15;;;28.30;;
7985;SDS011;4038;42.612;23.066;2022-07-29T10:49:56;32.28;;;29.40;;
7985;SDS011;4038;42.612;23.066;2022-07-29T10:52:23;31.63;;;28.63;;
7985;SDS011;4038;42.612;23.066;2022-07-29T10:54:52;32.25;;;29.20;;
7985;SDS011;4038;42.612;23.066;2022-07-29T11:05:05;30.83;;;28.30;;
7985;SDS011;4038;42.612;23.066;2022-07-29T11:07:33;33.10;;;29.92;;
7985;SDS011;4038;42.612;23.066;2022-07-29T11:15:07;32.63;;;29.67;;
7985;SDS011;4038;42.612;23.066;2022-07-29T11:29:22;32.35;;;29.58;;
7985;SDS011;4038;42.612;23.066;2022-07-29T11:31:32;31.17;;;28.77;;
7985;SDS011;4038;42.612;23.066;2022-07-29T11:34:17;32.83;;;30.02;;
7985;SDS011;4038;42.612;23.066;2022-07-29T11:39:37;31.52;;;29.02;;
7985;SDS011;4038;42.612;23.066;2022-07-29T11:47:31;32.20;;;29.42;;
7985;SDS011;4038;42.612;23.066;2022-07-29T11:50:03;31.25;;;28.85;;
7985;SDS011;4038;42.612;23.066;2022-07-29T11:52:37;32.92;;;30.27;;
7985;SDS011;4038;42.612;23.066;2022-07-29T11:55:08;33.63;;;30.90;;
7985;SDS011;4038;42.612;23.066;2022-07-29T11:57:35;33.53;;;30.60;;
7985;SDS011;4038;42.612;23.066;2022-07-29T12:00:02;32.25;;;29.85;;
7985;SDS011;4038;42.612;23.066;2022-07-29T12:02:40;32.63;;;29.77;;
7985;SDS011;4038;42.612;23.066;2022-07-29T12:05:07;32.80;;;30.40;;
7985;SDS011;4038;42.612;23.066;2022-07-29T12:07:34;32.67;;;30.10;;
7985;SDS011;4038;42.612;23.066;2022-07-29T12:10:00;32.70;;;30.20;;
7985;SDS011;4038;42.612;23.066;2022-07-29T12:12:26;32.67;;;30.27;;
7985;SDS011;4038;42.612;23.066;2022-07-29T12:14:52;31.85;;;29.05;;
7985;SDS011;4038;42.612;23.066;2022-07-29T12:17:29;32.28;;;30.08;;
7985;SDS011;4038;42.612;23.066;2022-07-29T12:20:01;32.90;;;30.42;;
7985;SDS011;4038;42.612;23.066;2022-07-29T12:25:00;32.40;;;30.10;;
7985;SDS011;4038;42.612;23.066;2022-07-29T12:27:27;31.33;;;29.02;;
7985;SDS011;4038;42.612;23.066;2022-07-29T12:29:56;31.35;;;28.77;;
7985;SDS011;4038;42.612;23.066;2022-07-29T12:32:30;31.80;;;29.40;;
7985;SDS011;4038;42.612;23.066;2022-07-29T12:35:02;33.03;;;30.42;;
7985;SDS011;4038;42.612;23.066;2022-07-29T12:37:36;32.58;;;30.10;;
7985;SDS011;4038;42.612;23.066;2022-07-29T12:40:04;33.65;;;30.98;;
7985;SDS011;4038;42.612;23.066;2022-07-29T12:42:32;34.08;;;31.40;;
7985;SDS011;4038;42.612;23.066;2022-07-29T12:44:58;33.85;;;31.08;;
7985;SDS011;4038;42.612;23.066;2022-07-29T12:47:24;33.72;;;31.13;;
7985;SDS011;4038;42.612;23.066;2022-07-29T12:49:50;33.65;;;31.13;;
7985;SDS011;4038;42.612;23.066;2022-07-29T12:52:32;31.75;;;29.55;;
7985;SDS011;4038;42.612;23.066;2022-07-29T12:54:59;31.67;;;29.58;;
7985;SDS011;4038;42.612;23.066;2022-07-29T12:57:25;31.90;;;29.55;;
7985;SDS011;4038;42.612;23.066;2022-07-29T13:00:25;29.73;;;27.65;;
7985;SDS011;4038;42.612;23.066;2022-07-29T13:02:53;30.25;;;28.05;;
7985;SDS011;4038;42.612;23.066;2022-07-29T13:05:20;30.63;;;27.98;;
7985;SDS011;4038;42.612;23.066;2022-07-29T13:07:46;29.70;;;27.50;;
7985;SDS011;4038;42.612;23.066;2022-07-29T13:10:21;29.92;;;27.63;;
7985;SDS011;4038;42.612;23.066;2022-07-29T13:15:39;30.02;;;27.77;;
7985;SDS011;4038;42.612;23.066;2022-07-29T13:18:27;31.20;;;28.83;;
7985;SDS011;4038;42.612;23.066;2022-07-29T13:20:57;31.95;;;29.73;;
7985;SDS011;4038;42.612;23.066;2022-07-29T13:23:37;32.40;;;29.60;;
7985;SDS011;4038;42.612;23.066;2022-07-29T13:26:06;32.17;;;29.75;;
7985;SDS011;4038;42.612;23.066;2022-07-29T13:28:35;32.00;;;29.80;;
7985;SDS011;4038;42.612;23.066;2022-07-29T13:31:00;32.22;;;29.63;;
7985;SDS011;4038;42.612;23.066;2022-07-29T13:33:26;31.58;;;29.08;;
7985;SDS011;4038;42.612;23.066;2022-07-29T13:35:52;31.20;;;28.80;;
7985;SDS011;4038;42.612;23.066;2022-07-29T13:38:17;31.30;;;29.10;;
7985;SDS011;4038;42.612;23.066;2022-07-29T13:40:43;32.05;;;29.65;;
7985;SDS011;4038;42.612;23.066;2022-07-29T13:43:09;31.13;;;28.92;;
7985;SDS011;4038;42.612;23.066;2022-07-29T13:45:35;30.30;;;28.10;;
7985;SDS011;4038;42.612;23.066;2022-07-29T13:48:00;31.40;;;28.90;;
7985;SDS011;4038;42.612;23.066;2022-07-29T13:50:26;30.58;;;28.20;;
7985;SDS011;4038;42.612;23.066;2022-07-29T13:52:51;31.02;;;28.92;;
7985;SDS011;4038;42.612;23.066;2022-07-29T13:55:17;31.83;;;29.42;;
7985;SDS011;4038;42.612;23.066;2022-07-29T13:57:43;30.85;;;28.65;;
7985;SDS011;4038;42.612;23.066;2022-07-29T14:00:08;30.15;;;28.02;;
7985;SDS011;4038;42.612;23.066;2022-07-29T14:02:35;32.05;;;29.63;;
7985;SDS011;4038;42.612;23.066;2022-07-29T14:05:00;33.10;;;30.80;;
7985;SDS011;4038;42.612;23.066;2022-07-29T14:07:25;30.20;;;28.00;;
7985;SDS011;4038;42.612;23.066;2022-07-29T14:09:51;30.35;;;28.15;;
7985;SDS011;4038;42.612;23.066;2022-07-29T14:12:16;30.05;;;27.73;;
7985;SDS011;4038;42.612;23.066;2022-07-29T14:14:42;30.42;;;28.20;;
7985;SDS011;4038;42.612;23.066;2022-07-29T14:17:07;30.20;;;27.95;;
7985;SDS011;4038;42.612;23.066;2022-07-29T14:19:33;30.27;;;28.17;;
7985;SDS011;4038;42.612;23.066;2022-07-29T14:22:03;30.55;;;28.45;;
7985;SDS011;4038;42.612;23.066;2022-07-29T14:24:29;31.58;;;29.05;;
7985;SDS011;4038;42.612;23.066;2022-07-29T14:26:55;31.50;;;29.08;;
7985;SDS011;4038;42.612;23.066;2022-07-29T14:29:20;32.53;;;30.13;;
7985;SDS011;4038;42.612;23.066;2022-07-29T14:31:46;31.75;;;29.55;;
7985;SDS011;4038;42.612;23.066;2022-07-29T14:34:11;33.42;;;30.25;;
7985;SDS011;4038;42.612;23.066;2022-07-29T14:36:36;32.40;;;30.10;;
7985;SDS011;4038;42.612;23.066;2022-07-29T14:39:02;33.03;;;30.52;;
7985;SDS011;4038;42.612;23.066;2022-07-29T14:41:27;31.90;;;29.65;;
7985;SDS011;4038;42.612;23.066;2022-07-29T14:43:53;34.60;;;31.80;;
7985;SDS011;4038;42.612;23.066;2022-07-29T14:46:19;33.33;;;30.35;;
7985;SDS011;4038;42.612;23.066;2022-07-29T14:48:44;33.35;;;30.85;;
7985;SDS011;4038;42.612;23.066;2022-07-29T14:51:10;32.40;;;29.92;;
7985;SDS011;4038;42.612;23.066;2022-07-29T14:53:35;30.17;;;28.17;;
7985;SDS011;4038;42.612;23.066;2022-07-29T14:56:01;32.53;;;30.17;;
7985;SDS011;4038;42.612;23.066;2022-07-29T14:58:26;30.13;;;28.13;;
7985;SDS011;4038;42.612;23.066;2022-07-29T15:00:52;30.40;;;28.23;;
7985;SDS011;4038;42.612;23.066;2022-07-29T15:03:20;29.05;;;27.15;;
7985;SDS011;4038;42.612;23.066;2022-07-29T15:05:45;29.98;;;27.88;;
7985;SDS011;4038;42.612;23.066;2022-07-29T15:08:11;32.10;;;29.90;;
7985;SDS011;4038;42.612;23.066;2022-07-29T15:10:36;31.30;;;29.00;;
7985;SDS011;4038;42.612;23.066;2022-07-29T15:13:02;31.27;;;28.95;;
7985;SDS011;4038;42.612;23.066;2022-07-29T15:15:28;31.42;;;29.15;;
7985;SDS011;4038;42.612;23.066;2022-07-29T15:17:54;31.92;;;29.70;;
7985;SDS011;4038;42.612;23.066;2022-07-29T15:20:20;31.65;;;29.30;;
7985;SDS011;4038;42.612;23.066;2022-07-29T15:22:46;31.45;;;28.95;;
7985;SDS011;4038;42.612;23.066;2022-07-29T15:25:11;32.25;;;29.35;;
7985;SDS011;4038;42.612;23.066;2022-07-29T15:27:37;32.03;;;29.15;;
7985;SDS011;4038;42.612;23.066;2022-07-29T15:30:02;32.08;;;29.58;;
7985;SDS011;4038;42.612;23.066;2022-07-29T15:32:28;31.38;;;29.23;;
7985;SDS011;4038;42.612;23.066;2022-07-29T15:34:53;31.42;;;29.05;;
7985;SDS011;4038;42.612;23.066;2022-07-29T15:37:19;30.90;;;28.38;;
7985;SDS011;4038;42.612;23.066;2022-07-29T15:39:44;30.60;;;28.33;;